createdAt,value
2022-12-14T00:03:04.304Z,47.48176
2022-12-14T00:08:05.422Z,48.69757
2022-12-14T00:13:06.331Z,49.45926
2022-12-14T00:18:07.255Z,49.60506
2022-12-14T00:23:08.209Z,50.08615
2022-12-14T00:28:09.138Z,50.61219
2022-12-14T00:33:10.134Z,50.49402
2022-12-14T00:38:11.313Z,50.55651
2022-12-14T00:43:12.253Z,50.6557
2022-12-14T00:48:13.318Z,50.68983
2022-12-14T00:53:14.243Z,50.60188
2022-12-14T00:58:15.160Z,50.75418
2022-12-14T01:03:16.205Z,50.30532
2022-12-14T01:08:17.172Z,50.5072
2022-12-14T01:13:18.089Z,51.1328
2022-12-14T01:18:18.984Z,51.99791
2022-12-14T01:23:19.928Z,51.86089
2022-12-14T01:28:20.847Z,51.7851
2022-12-14T01:33:21.760Z,52.51462
2022-12-14T01:38:22.921Z,52.44489
2022-12-14T01:43:24.155Z,52.51824
2022-12-14T01:48:25.364Z,52.3703
2022-12-14T01:53:26.670Z,52.51107
2022-12-14T01:58:27.925Z,53.20213
2022-12-14T02:03:29.139Z,53.49366
2022-12-14T02:08:30.462Z,53.66561
2022-12-14T02:13:31.629Z,53.94254
2022-12-14T02:18:32.635Z,53.89239
2022-12-14T02:23:33.597Z,53.50205
2022-12-14T02:28:34.471Z,53.39671
2022-12-14T02:33:35.453Z,53.96713
2022-12-14T02:38:36.459Z,53.64797
2022-12-14T02:43:37.376Z,54.03512
2022-12-14T02:48:38.248Z,54.06764
2022-12-14T02:53:39.701Z,54.17303
2022-12-14T02:58:40.816Z,54.48135
2022-12-14T03:03:41.697Z,54.59796
2022-12-14T03:08:42.745Z,55.43603
2022-12-14T03:13:43.640Z,55.78115
2022-12-14T03:18:44.530Z,56.13667
2022-12-14T03:23:45.423Z,56.04121
2022-12-14T03:28:46.397Z,56.79275
2022-12-14T03:33:47.325Z,56.93893
2022-12-14T03:38:48.308Z,57.97033
2022-12-14T03:43:49.717Z,57.81085
2022-12-14T03:48:50.960Z,57.96917
2022-12-14T03:53:51.842Z,58.38785
2022-12-14T03:58:56.972Z,58.4932
2022-12-14T04:03:58.316Z,59.03735
2022-12-14T04:08:59.593Z,59.05062
2022-12-14T04:14:00.573Z,59.20486
2022-12-14T04:19:01.528Z,59.87133
2022-12-14T04:24:02.415Z,59.75927
2022-12-14T04:29:03.653Z,60.76159
2022-12-14T04:34:04.521Z,61.21124
2022-12-14T04:39:05.534Z,61.44586
2022-12-14T04:44:06.436Z,61.49953
2022-12-14T04:49:07.366Z,61.77188
2022-12-14T04:54:08.254Z,62.18469
2022-12-14T04:59:09.127Z,62.61146
2022-12-14T05:04:12.799Z,63.01557
2022-12-14T05:09:14.040Z,63.75592
2022-12-14T05:14:15.048Z,63.67673
2022-12-14T05:19:16.021Z,64.07217
2022-12-14T05:24:16.952Z,65.10038
2022-12-14T05:29:17.887Z,65.60581
2022-12-14T05:34:18.784Z,66.42761
2022-12-14T05:39:19.752Z,66.74341
2022-12-14T05:44:20.696Z,67.87415
2022-12-14T05:49:21.655Z,68.66206
2022-12-14T05:54:22.579Z,69.31895
2022-12-14T05:59:23.515Z,70.04467
2022-12-14T06:04:24.554Z,70.44847
2022-12-14T06:09:25.661Z,69.85292
2022-12-14T06:14:26.585Z,69.67091
2022-12-14T06:19:27.505Z,69.89604
2022-12-14T06:24:28.428Z,70.67979
2022-12-14T06:29:29.510Z,70.57532
2022-12-14T06:34:34.083Z,70.39364
2022-12-14T06:39:39.228Z,70.61832
2022-12-14T06:44:40.091Z,70.98042
2022-12-14T06:49:41.008Z,71.73109
2022-12-14T06:54:41.961Z,71.94791
2022-12-14T06:59:42.904Z,72.08698
2022-12-14T07:04:43.988Z,71.97
2022-12-14T07:09:44.964Z,72.48788
2022-12-14T07:14:45.886Z,72.52519
2022-12-14T07:19:49.118Z,72.85314
2022-12-14T07:24:50.295Z,73.31243
2022-12-14T07:29:51.235Z,73.88697
2022-12-14T07:34:52.164Z,74.31139
2022-12-14T07:39:53.147Z,75.19951
2022-12-14T07:44:54.068Z,75.19026
2022-12-14T07:49:55.129Z,75.18373
2022-12-14T07:54:56.077Z,75.01716
2022-12-14T07:59:57.717Z,74.70573
2022-12-14T08:04:58.751Z,74.59116
2022-12-14T08:09:59.948Z,74.78908
2022-12-14T08:15:00.925Z,74.31473
2022-12-14T08:20:01.810Z,74.76074
2022-12-14T08:25:02.726Z,74.99223
2022-12-14T08:30:03.657Z,75.8322
2022-12-14T08:35:04.552Z,76.50812
2022-12-14T08:40:12.264Z,76.81907
2022-12-14T08:45:13.248Z,77.02253
2022-12-14T08:50:14.163Z,76.97431
2022-12-14T08:55:15.045Z,77.70273
2022-12-14T09:00:15.965Z,77.92373
2022-12-14T09:05:16.875Z,78.14334
2022-12-14T09:10:17.782Z,78.30677
2022-12-14T09:15:18.708Z,78.65451
2022-12-14T09:20:19.593Z,78.22105
2022-12-14T09:25:20.479Z,78.88204
2022-12-14T09:30:26.352Z,80.05495
2022-12-14T09:35:27.629Z,80.24806
2022-12-14T09:40:28.764Z,80.81674
2022-12-14T09:45:29.863Z,81.45846
2022-12-14T09:50:30.933Z,82.38245
2022-12-14T09:55:31.882Z,83.56092
2022-12-14T10:00:32.831Z,83.67526
2022-12-14T10:05:33.718Z,84.15961
2022-12-14T10:10:34.732Z,84.51707
2022-12-14T10:15:35.744Z,85.39633
2022-12-14T10:20:36.647Z,85.66056
2022-12-14T10:25:37.578Z,85.7074
2022-12-14T10:30:38.542Z,86.58336
2022-12-14T10:35:39.470Z,87.45743
2022-12-14T10:40:40.471Z,87.41372
2022-12-14T10:45:42.348Z,88.36024
2022-12-14T10:50:43.592Z,89.1832
2022-12-14T10:55:50.788Z,89.27192
2022-12-14T11:00:51.771Z,89.53563
2022-12-14T11:05:52.774Z,89.81409
2022-12-14T11:10:53.695Z,91.24169
2022-12-14T11:15:54.615Z,91.81399
2022-12-14T11:20:55.533Z,92.22903
2022-12-14T11:25:56.554Z,92.44679
2022-12-14T11:30:57.581Z,92.36585
2022-12-14T11:35:58.757Z,92.34741
2022-12-14T11:41:00.003Z,92.96843
2022-12-14T11:46:01.080Z,92.81255
2022-12-14T11:51:02.107Z,93.12605
2022-12-14T11:56:03.073Z,93.3407
2022-12-14T12:01:04.046Z,93.69826
2022-12-14T12:06:05.008Z,93.87426
2022-12-14T12:11:05.997Z,94.13032
2022-12-14T12:16:07.189Z,94.68677
2022-12-14T12:21:08.351Z,95.04446
2022-12-14T12:26:09.265Z,95.09227
2022-12-14T12:31:11.116Z,95.51064
2022-12-14T12:36:12.370Z,95.79165
2022-12-14T12:41:13.297Z,96.64758
2022-12-14T12:46:14.277Z,96.53467
2022-12-14T12:51:15.220Z,97.44514
2022-12-14T12:56:16.133Z,96.92423
2022-12-14T13:01:17.309Z,97.10911
2022-12-14T13:06:18.445Z,97.13241
2022-12-14T13:11:27.322Z,97.3304
2022-12-14T13:16:28.853Z,97.75311
2022-12-14T13:21:29.891Z,98.09109
2022-12-14T13:26:56.799Z,98.45593
2022-12-14T13:31:59.027Z,98.62834
2022-12-14T13:37:00.142Z,98.56468
2022-12-14T13:42:01.274Z,98.31514
2022-12-14T13:47:02.319Z,98.31892
2022-12-14T13:52:03.311Z,98.49501
2022-12-14T13:57:04.234Z,99.01508
2022-12-14T14:02:05.211Z,99.5299
2022-12-14T14:07:06.093Z,99.86986
2022-12-14T14:12:07.053Z,100.53034
2022-12-14T14:17:08.105Z,100.16068
2022-12-14T14:22:24.119Z,101.16653
2022-12-14T14:27:25.767Z,102.32622
2022-12-14T14:32:26.720Z,102.84796
2022-12-14T14:37:27.639Z,103.88775
2022-12-14T14:42:28.613Z,103.88109
2022-12-14T14:47:29.665Z,104.7134
2022-12-14T14:52:30.673Z,104.78616
2022-12-14T14:57:31.591Z,104.93872
2022-12-14T15:02:32.769Z,104.31476
2022-12-14T15:07:33.745Z,104.52275
2022-12-14T15:12:34.633Z,104.9465
2022-12-14T15:17:35.608Z,104.88628
2022-12-14T15:22:36.523Z,105.24636
2022-12-14T15:27:37.451Z,105.07284
2022-12-14T15:32:40.669Z,104.56221
2022-12-14T15:37:45.200Z,104.63209
2022-12-14T15:42:46.221Z,104.15945
2022-12-14T15:47:49.180Z,104.25781
2022-12-14T15:52:50.634Z,104.53743
2022-12-14T15:57:51.582Z,104.81537
2022-12-14T16:02:52.545Z,105.30023
2022-12-14T16:07:53.490Z,105.14834
2022-12-14T16:12:54.418Z,104.91426
2022-12-14T16:18:01.591Z,105.19642
2022-12-14T16:23:03.468Z,105.57105
2022-12-14T16:28:04.353Z,105.49837
2022-12-14T16:33:05.270Z,105.7801
2022-12-14T16:38:06.178Z,106.01863
2022-12-14T16:43:07.284Z,106.36699
2022-12-14T16:48:08.217Z,105.73212
2022-12-14T16:53:09.143Z,105.87795
2022-12-14T16:58:10.037Z,105.07101
2022-12-14T17:03:11.089Z,105.0855
2022-12-14T17:08:12.079Z,105.36347
2022-12-14T17:13:13.112Z,105.49095
2022-12-14T17:18:14.027Z,105.40308
2022-12-14T17:23:14.947Z,104.9114
2022-12-14T17:28:15.859Z,104.44957
2022-12-14T17:33:16.771Z,104.93732
2022-12-14T17:38:17.692Z,104.93976
2022-12-14T17:43:18.699Z,104.63899
2022-12-14T17:48:19.640Z,104.5178
2022-12-14T17:53:20.605Z,105.0302
2022-12-14T17:58:21.534Z,105.25645
2022-12-14T18:03:22.533Z,105.5771
2022-12-14T18:08:23.560Z,105.48538
2022-12-14T18:13:24.531Z,105.06102
2022-12-14T18:18:25.543Z,104.72794
2022-12-14T18:23:26.509Z,104.83141
2022-12-14T18:28:28.525Z,105.34765
2022-12-14T18:33:29.998Z,105.45369
2022-12-14T18:38:31.328Z,105.55282
2022-12-14T18:43:32.661Z,104.73406
2022-12-14T18:48:33.990Z,103.77759
2022-12-14T18:53:35.208Z,104.86386
2022-12-14T18:58:36.248Z,105.0484
2022-12-14T19:03:37.578Z,104.47019
2022-12-14T19:08:38.636Z,104.04251
2022-12-14T19:13:39.582Z,103.89143
2022-12-14T19:18:40.569Z,104.41443
2022-12-14T19:23:41.442Z,104.61462
2022-12-14T19:28:42.377Z,104.66996
2022-12-14T19:33:43.308Z,103.63314
2022-12-14T19:38:44.241Z,103.66869
2022-12-14T19:43:45.209Z,103.22085
2022-12-14T19:48:46.114Z,103.65608
2022-12-14T19:53:47.073Z,103.51568
2022-12-14T19:58:47.988Z,103.10811
2022-12-14T20:03:49.168Z,102.68395
2022-12-14T20:08:50.159Z,102.41463
2022-12-14T20:13:56.720Z,102.55493
2022-12-14T20:18:59.033Z,102.20293
2022-12-14T20:24:00.234Z,101.95739
2022-12-14T20:29:01.336Z,101.74107
2022-12-14T20:34:02.312Z,102.06146
2022-12-14T20:39:03.260Z,102.36595
2022-12-14T20:44:04.204Z,102.34598
2022-12-14T20:49:05.106Z,101.5929
2022-12-14T20:54:06.008Z,101.69438
2022-12-14T20:59:06.949Z,101.52979
2022-12-14T21:04:07.849Z,101.94738
2022-12-14T21:09:08.763Z,101.59916
2022-12-14T21:14:09.687Z,101.53908
2022-12-14T21:19:10.722Z,101.47408
2022-12-14T21:24:17.687Z,100.56866
2022-12-14T21:29:32.337Z,100.57847
2022-12-14T21:34:33.273Z,100.68829
2022-12-14T21:39:34.197Z,100.18086
2022-12-14T21:44:35.162Z,99.87666
2022-12-14T21:49:36.059Z,99.81648
2022-12-14T21:54:37.077Z,99.82585
2022-12-14T21:59:37.990Z,98.98726
2022-12-14T22:04:40.143Z,98.83864
2022-12-14T22:09:41.129Z,99.02368
2022-12-14T22:14:42.092Z,99.37012
2022-12-14T22:19:42.987Z,99.01733
2022-12-14T22:24:43.899Z,99.24603
2022-12-14T22:29:44.854Z,98.9742
2022-12-14T22:34:45.790Z,98.22881
2022-12-14T22:39:48.060Z,97.99836
2022-12-14T22:44:49.268Z,98.13129
2022-12-14T22:49:50.198Z,98.39864
2022-12-14T22:54:51.103Z,98.37115
2022-12-14T22:59:52.059Z,98.4204
2022-12-14T23:04:53.053Z,98.15049
2022-12-14T23:09:53.980Z,98.34241
2022-12-14T23:14:55.002Z,98.56487
2022-12-14T23:19:58.701Z,98.14966
2022-12-14T23:25:03.824Z,98.18384
2022-12-14T23:30:04.893Z,98.09992
2022-12-14T23:35:05.822Z,97.84016
2022-12-14T23:40:06.767Z,97.71744
2022-12-14T23:45:07.748Z,97.4264
2022-12-14T23:50:08.702Z,97.24571
2022-12-14T23:55:09.691Z,97.98675
